sensor_id;sensor_type;location;lat;lon;timestamp;temperature;humidity
9776;DHT22;4927;52.472;13.108;2024-02-21T00:00:19;7.50;99.90
9776;DHT22;4927;52.472;13.108;2024-02-21T00:01:21;7.40;99.90
9776;DHT22;4927;52.472;13.108;2024-02-21T00:02:23;7.40;99.90
9776;DHT22;4927;52.472;13.108;2024-02-21T00:03:25;7.50;99.90
9776;DHT22;4927;52.472;13.108;2024-02-21T00:04:27;7.50;99.90
9776;DHT22;4927;52.472;13.108;2024-02-21T00:06:32;7.60;99.90
9776;DHT22;4927;52.472;13.108;2024-02-21T00:07:34;7.50;99.90
9776;DHT22;4927;52.472;13.108;2024-02-21T00:08:37;7.50;99.90
9776;DHT22;4927;52.472;13.108;2024-02-21T00:09:40;7.50;99.90
9776;DHT22;4927;52.472;13.108;2024-02-21T00:10:42;7.50;99.90
9776;DHT22;4927;52.472;13.108;2024-02-21T00:11:44;7.70;99.90
9776;DHT22;4927;52.472;13.108;2024-02-21T00:12:47;7.50;99.90
9776;DHT22;4927;52.472;13.108;2024-02-21T00:13:49;7.50;99.90
9776;DHT22;4927;52.472;13.108;2024-02-21T00:14:52;7.50;99.90
9776;DHT22;4927;52.472;13.108;2024-02-21T00:15:54;7.50;99.90
9776;DHT22;4927;52.472;13.108;2024-02-21T00:16:55;7.50;99.90
9776;DHT22;4927;52.472;13.108;2024-02-21T00:17:58;7.50;99.90
9776;DHT22;4927;52.472;13.108;2024-02-21T00:19:00;7.40;99.90
9776;DHT22;4927;52.472;13.108;2024-02-21T00:20:03;7.50;99.90
9776;DHT22;4927;52.472;13.108;2024-02-21T00:21:06;7.50;99.90
9776;DHT22;4927;52.472;13.108;2024-02-21T00:22:07;7.50;99.90
9776;DHT22;4927;52.472;13.108;2024-02-21T00:23:10;7.40;99.90
9776;DHT22;4927;52.472;13.108;2024-02-21T00:24:12;7.40;99.90
9776;DHT22;4927;52.472;13.108;2024-02-21T00:25:14;7.50;99.90
9776;DHT22;4927;52.472;13.108;2024-02-21T00:26:16;7.50;99.90
9776;DHT22;4927;52.472;13.108;2024-02-21T00:27:18;7.50;99.90
9776;DHT22;4927;52.472;13.108;2024-02-21T00:28:20;7.30;99.90
9776;DHT22;4927;52.472;13.108;2024-02-21T00:29:23;7.50;99.90
9776;DHT22;4927;52.472;13.108;2024-02-21T00:30:25;7.40;99.90
9776;DHT22;4927;52.472;13.108;2024-02-21T00:31:27;7.50;99.90
9776;DHT22;4927;52.472;13.108;2024-02-21T00:33:33;7.60;99.90
9776;DHT22;4927;52.472;13.108;2024-02-21T00:34:35;7.50;99.90
9776;DHT22;4927;52.472;13.108;2024-02-21T00:35:37;7.50;99.90
9776;DHT22;4927;52.472;13.108;2024-02-21T00:36:39;7.40;99.90
9776;DHT22;4927;52.472;13.108;2024-02-21T00:37:41;7.50;99.90
9776;DHT22;4927;52.472;13.108;2024-02-21T00:38:43;7.50;99.90
9776;DHT22;4927;52.472;13.108;2024-02-21T00:39:45;7.50;99.90
9776;DHT22;4927;52.472;13.108;2024-02-21T00:40:47;7.50;99.90
9776;DHT22;4927;52.472;13.108;2024-02-21T00:41:49;7.50;99.90
9776;DHT22;4927;52.472;13.108;2024-02-21T00:42:52;7.50;99.90
9776;DHT22;4927;52.472;13.108;2024-02-21T00:43:54;7.50;99.90
9776;DHT22;4927;52.472;13.108;2024-02-21T00:44:58;7.50;99.90
9776;DHT22;4927;52.472;13.108;2024-02-21T00:45:59;7.40;99.90
9776;DHT22;4927;52.472;13.108;2024-02-21T00:47:02;7.50;99.90
9776;DHT22;4927;52.472;13.108;2024-02-21T00:48:05;7.50;99.90
9776;DHT22;4927;52.472;13.108;2024-02-21T00:49:08;7.50;99.90
9776;DHT22;4927;52.472;13.108;2024-02-21T00:50:09;7.50;99.90
9776;DHT22;4927;52.472;13.108;2024-02-21T00:51:11;7.50;99.90
9776;DHT22;4927;52.472;13.108;2024-02-21T00:52:13;7.40;99.90
9776;DHT22;4927;52.472;13.108;2024-02-21T00:53:16;7.50;99.90
9776;DHT22;4927;52.472;13.108;2024-02-21T00:54:18;7.40;99.90
9776;DHT22;4927;52.472;13.108;2024-02-21T00:55:20;7.50;99.90
9776;DHT22;4927;52.472;13.108;2024-02-21T00:56:22;7.60;99.90
9776;DHT22;4927;52.472;13.108;2024-02-21T00:57:26;7.50;99.90
9776;DHT22;4927;52.472;13.108;2024-02-21T00:58:27;7.40;99.90
9776;DHT22;4927;52.472;13.108;2024-02-21T00:59:29;7.40;99.90
9776;DHT22;4927;52.472;13.108;2024-02-21T01:00:31;7.40;99.90
9776;DHT22;4927;52.472;13.108;2024-02-21T01:03:40;7.40;99.90
9776;DHT22;4927;52.472;13.108;2024-02-21T01:04:41;7.50;99.90
9776;DHT22;4927;52.472;13.108;2024-02-21T01:05:43;7.60;99.90
9776;DHT22;4927;52.472;13.108;2024-02-21T01:06:47;7.50;99.90
9776;DHT22;4927;52.472;13.108;2024-02-21T01:07:49;7.40;99.90
9776;DHT22;4927;52.472;13.108;2024-02-21T01:08:52;7.50;99.90
9776;DHT22;4927;52.472;13.108;2024-02-21T01:09:53;7.50;99.90
9776;DHT22;4927;52.472;13.108;2024-02-21T01:12:00;7.50;99.90
9776;DHT22;4927;52.472;13.108;2024-02-21T01:13:02;7.50;99.90
9776;DHT22;4927;52.472;13.108;2024-02-21T01:14:06;7.50;99.90
9776;DHT22;4927;52.472;13.108;2024-02-21T01:15:08;7.50;99.90
9776;DHT22;4927;52.472;13.108;2024-02-21T01:16:10;7.50;99.90
9776;DHT22;4927;52.472;13.108;2024-02-21T01:17:12;7.50;99.90
9776;DHT22;4927;52.472;13.108;2024-02-21T01:18:14;7.40;99.90
9776;DHT22;4927;52.472;13.108;2024-02-21T01:19:16;7.40;99.90
9776;DHT22;4927;52.472;13.108;2024-02-21T01:20:18;7.50;99.90
9776;DHT22;4927;52.472;13.108;2024-02-21T01:21:20;7.40;99.90
9776;DHT22;4927;52.472;13.108;2024-02-21T01:22:22;7.40;99.90
9776;DHT22;4927;52.472;13.108;2024-02-21T01:23:24;7.40;99.90
9776;DHT22;4927;52.472;13.108;2024-02-21T01:24:27;7.40;99.90
9776;DHT22;4927;52.472;13.108;2024-02-21T01:25:29;7.60;99.90
9776;DHT22;4927;52.472;13.108;2024-02-21T01:26:31;7.30;99.90
9776;DHT22;4927;52.472;13.108;2024-02-21T01:27:33;7.50;99.90
9776;DHT22;4927;52.472;13.108;2024-02-21T01:28:34;7.50;99.90
9776;DHT22;4927;52.472;13.108;2024-02-21T01:29:37;7.50;99.90
9776;DHT22;4927;52.472;13.108;2024-02-21T01:30:39;7.60;99.90
9776;DHT22;4927;52.472;13.108;2024-02-21T01:31:40;7.30;99.90
9776;DHT22;4927;52.472;13.108;2024-02-21T01:32:42;7.40;99.90
9776;DHT22;4927;52.472;13.108;2024-02-21T01:33:45;7.50;99.90
9776;DHT22;4927;52.472;13.108;2024-02-21T01:34:47;7.50;99.90
9776;DHT22;4927;52.472;13.108;2024-02-21T01:36:53;7.40;99.90
9776;DHT22;4927;52.472;13.108;2024-02-21T01:37:57;7.50;99.90
9776;DHT22;4927;52.472;13.108;2024-02-21T01:38:59;7.40;99.90
9776;DHT22;4927;52.472;13.108;2024-02-21T01:40:01;7.50;99.90
9776;DHT22;4927;52.472;13.108;2024-02-21T01:41:05;7.50;99.90
9776;DHT22;4927;52.472;13.108;2024-02-21T01:42:06;7.40;99.90
9776;DHT22;4927;52.472;13.108;2024-02-21T01:43:15;7.50;99.90
9776;DHT22;4927;52.472;13.108;2024-02-21T01:44:17;7.50;99.90
9776;DHT22;4927;52.472;13.108;2024-02-21T01:46:24;7.50;99.90
9776;DHT22;4927;52.472;13.108;2024-02-21T01:47:25;7.40;99.90
9776;DHT22;4927;52.472;13.108;2024-02-21T01:49:31;7.50;99.90
9776;DHT22;4927;52.472;13.108;2024-02-21T01:50:32;7.50;99.90
9776;DHT22;4927;52.472;13.108;2024-02-21T01:51:34;7.60;99.90
9776;DHT22;4927;52.472;13.108;2024-02-21T01:52:38;7.50;99.90
9776;DHT22;4927;52.472;13.108;2024-02-21T01:53:42;7.50;99.90
9776;DHT22;4927;52.472;13.108;2024-02-21T01:54:43;7.50;99.90
9776;DHT22;4927;52.472;13.108;2024-02-21T01:55:45;7.60;99.90
9776;DHT22;4927;52.472;13.108;2024-02-21T01:57:50;7.40;99.90
9776;DHT22;4927;52.472;13.108;2024-02-21T01:58:52;7.40;99.90
9776;DHT22;4927;52.472;13.108;2024-02-21T01:59:54;7.50;99.90
9776;DHT22;4927;52.472;13.108;2024-02-21T02:00:57;7.50;99.90
9776;DHT22;4927;52.472;13.108;2024-02-21T02:01:59;7.40;99.90
9776;DHT22;4927;52.472;13.108;2024-02-21T02:03:01;7.60;99.90
9776;DHT22;4927;52.472;13.108;2024-02-21T02:04:03;7.40;99.90
9776;DHT22;4927;52.472;13.108;2024-02-21T02:05:05;7.50;99.90
9776;DHT22;4927;52.472;13.108;2024-02-21T02:06:07;7.50;99.90
9776;DHT22;4927;52.472;13.108;2024-02-21T02:07:09;7.50;99.90
9776;DHT22;4927;52.472;13.108;2024-02-21T02:08:14;7.50;99.90
9776;DHT22;4927;52.472;13.108;2024-02-21T02:09:17;7.50;99.90
9776;DHT22;4927;52.472;13.108;2024-02-21T02:10:19;7.60;99.90
9776;DHT22;4927;52.472;13.108;2024-02-21T02:11:21;7.50;99.90
9776;DHT22;4927;52.472;13.108;2024-02-21T02:12:23;7.30;99.90
9776;DHT22;4927;52.472;13.108;2024-02-21T02:13:25;7.50;99.90
9776;DHT22;4927;52.472;13.108;2024-02-21T02:14:27;7.50;99.90
9776;DHT22;4927;52.472;13.108;2024-02-21T02:15:37;7.50;99.90
9776;DHT22;4927;52.472;13.108;2024-02-21T02:16:31;7.50;99.90
9776;DHT22;4927;52.472;13.108;2024-02-21T02:17:33;7.50;99.90
9776;DHT22;4927;52.472;13.108;2024-02-21T02:18:35;7.50;99.90
9776;DHT22;4927;52.472;13.108;2024-02-21T02:19:36;7.50;99.90
9776;DHT22;4927;52.472;13.108;2024-02-21T02:20:40;7.50;99.90
9776;DHT22;4927;52.472;13.108;2024-02-21T02:21:42;7.40;99.90
9776;DHT22;4927;52.472;13.108;2024-02-21T02:22:43;7.60;99.90
9776;DHT22;4927;52.472;13.108;2024-02-21T02:23:45;7.50;99.90
9776;DHT22;4927;52.472;13.108;2024-02-21T02:24:48;7.50;99.90
9776;DHT22;4927;52.472;13.108;2024-02-21T02:25:50;7.50;99.90
9776;DHT22;4927;52.472;13.108;2024-02-21T02:26:54;7.40;99.90
9776;DHT22;4927;52.472;13.108;2024-02-21T02:27:56;7.40;99.90
9776;DHT22;4927;52.472;13.108;2024-02-21T02:30:01;7.40;99.90
9776;DHT22;4927;52.472;13.108;2024-02-21T02:31:03;7.40;99.90
9776;DHT22;4927;52.472;13.108;2024-02-21T02:32:05;7.40;99.90
9776;DHT22;4927;52.472;13.108;2024-02-21T02:33:08;7.40;99.90
9776;DHT22;4927;52.472;13.108;2024-02-21T02:34:10;7.30;99.90
9776;DHT22;4927;52.472;13.108;2024-02-21T02:35:12;7.30;99.90
9776;DHT22;4927;52.472;13.108;2024-02-21T02:36:15;7.30;99.90
9776;DHT22;4927;52.472;13.108;2024-02-21T02:37:16;7.30;99.90
9776;DHT22;4927;52.472;13.108;2024-02-21T02:38:18;7.30;99.90
9776;DHT22;4927;52.472;13.108;2024-02-21T02:39:20;7.30;99.90
9776;DHT22;4927;52.472;13.108;2024-02-21T02:40:22;7.30;99.90
9776;DHT22;4927;52.472;13.108;2024-02-21T02:41:24;7.30;99.90
9776;DHT22;4927;52.472;13.108;2024-02-21T02:42:26;7.30;99.90
9776;DHT22;4927;52.472;13.108;2024-02-21T02:43:28;7.30;99.90
9776;DHT22;4927;52.472;13.108;2024-02-21T02:44:30;7.30;99.90
9776;DHT22;4927;52.472;13.108;2024-02-21T02:45:33;7.30;99.90
9776;DHT22;4927;52.472;13.108;2024-02-21T02:46:36;7.30;99.90
9776;DHT22;4927;52.472;13.108;2024-02-21T02:47:39;7.30;99.90
9776;DHT22;4927;52.472;13.108;2024-02-21T02:48:41;7.40;99.90
9776;DHT22;4927;52.472;13.108;2024-02-21T02:49:42;7.30;99.90
9776;DHT22;4927;52.472;13.108;2024-02-21T02:50:44;7.40;99.90
9776;DHT22;4927;52.472;13.108;2024-02-21T02:51:46;7.30;99.90
9776;DHT22;4927;52.472;13.108;2024-02-21T02:52:55;7.30;99.90
9776;DHT22;4927;52.472;13.108;2024-02-21T02:53:57;7.20;99.90
9776;DHT22;4927;52.472;13.108;2024-02-21T02:54:59;7.20;99.90
9776;DHT22;4927;52.472;13.108;2024-02-21T02:56:01;7.30;99.90
9776;DHT22;4927;52.472;13.108;2024-02-21T02:57:02;7.20;99.90
9776;DHT22;4927;52.472;13.108;2024-02-21T02:58:05;7.30;99.90
9776;DHT22;4927;52.472;13.108;2024-02-21T02:59:07;7.20;99.90
9776;DHT22;4927;52.472;13.108;2024-02-21T03:00:11;7.20;99.90
9776;DHT22;4927;52.472;13.108;2024-02-21T03:01:13;7.20;99.90
9776;DHT22;4927;52.472;13.108;2024-02-21T03:02:16;7.20;99.90
9776;DHT22;4927;52.472;13.108;2024-02-21T03:03:18;7.20;99.90
9776;DHT22;4927;52.472;13.108;2024-02-21T03:04:20;7.20;99.90
9776;DHT22;4927;52.472;13.108;2024-02-21T03:05:22;7.20;99.90
9776;DHT22;4927;52.472;13.108;2024-02-21T03:06:25;7.20;99.90
9776;DHT22;4927;52.472;13.108;2024-02-21T03:07:27;7.20;99.90
9776;DHT22;4927;52.472;13.108;2024-02-21T03:08:29;7.20;99.90
9776;DHT22;4927;52.472;13.108;2024-02-21T03:09:31;7.20;99.90
9776;DHT22;4927;52.472;13.108;2024-02-21T03:10:33;7.20;99.90
9776;DHT22;4927;52.472;13.108;2024-02-21T03:11:35;7.20;99.90
9776;DHT22;4927;52.472;13.108;2024-02-21T03:12:37;7.20;99.90
9776;DHT22;4927;52.472;13.108;2024-02-21T03:13:39;7.20;99.90
9776;DHT22;4927;52.472;13.108;2024-02-21T03:14:41;7.20;99.90
9776;DHT22;4927;52.472;13.108;2024-02-21T03:15:43;7.20;99.90
9776;DHT22;4927;52.472;13.108;2024-02-21T03:16:45;7.20;99.90
9776;DHT22;4927;52.472;13.108;2024-02-21T03:17:47;7.10;99.90
9776;DHT22;4927;52.472;13.108;2024-02-21T03:18:48;7.20;99.90
9776;DHT22;4927;52.472;13.108;2024-02-21T03:19:50;7.10;99.90
9776;DHT22;4927;52.472;13.108;2024-02-21T03:20:52;7.10;99.90
9776;DHT22;4927;52.472;13.108;2024-02-21T03:21:54;7.10;99.90
9776;DHT22;4927;52.472;13.108;2024-02-21T03:22:56;7.20;99.90
9776;DHT22;4927;52.472;13.108;2024-02-21T03:23:57;8.90;99.90
9776;DHT22;4927;52.472;13.108;2024-02-21T03:24:59;7.10;99.90
9776;DHT22;4927;52.472;13.108;2024-02-21T03:26:02;7.10;99.90
9776;DHT22;4927;52.472;13.108;2024-02-21T03:27:04;7.10;99.90
9776;DHT22;4927;52.472;13.108;2024-02-21T03:28:06;7.00;99.90
9776;DHT22;4927;52.472;13.108;2024-02-21T03:29:08;7.10;99.90
9776;DHT22;4927;52.472;13.108;2024-02-21T03:30:12;7.10;99.90
9776;DHT22;4927;52.472;13.108;2024-02-21T03:31:14;7.10;99.90
9776;DHT22;4927;52.472;13.108;2024-02-21T03:32:16;7.20;99.90
9776;DHT22;4927;52.472;13.108;2024-02-21T03:33:19;7.20;99.90
9776;DHT22;4927;52.472;13.108;2024-02-21T03:34:21;7.20;99.90
9776;DHT22;4927;52.472;13.108;2024-02-21T03:35:23;7.20;99.90
9776;DHT22;4927;52.472;13.108;2024-02-21T03:36:25;7.10;99.90
9776;DHT22;4927;52.472;13.108;2024-02-21T03:37:26;7.10;99.90
9776;DHT22;4927;52.472;13.108;2024-02-21T03:38:28;7.10;99.90
9776;DHT22;4927;52.472;13.108;2024-02-21T03:39:31;7.10;99.90
9776;DHT22;4927;52.472;13.108;2024-02-21T03:40:33;7.10;99.90
9776;DHT22;4927;52.472;13.108;2024-02-21T03:41:35;6.90;99.90
9776;DHT22;4927;52.472;13.108;2024-02-21T03:42:37;7.10;99.90
9776;DHT22;4927;52.472;13.108;2024-02-21T03:43:39;7.20;99.90
9776;DHT22;4927;52.472;13.108;2024-02-21T03:44:41;7.10;99.90
9776;DHT22;4927;52.472;13.108;2024-02-21T03:45:44;7.10;99.90
9776;DHT22;4927;52.472;13.108;2024-02-21T03:46:46;7.10;99.90
9776;DHT22;4927;52.472;13.108;2024-02-21T03:48:52;7.30;99.90
9776;DHT22;4927;52.472;13.108;2024-02-21T03:49:53;7.20;99.90
9776;DHT22;4927;52.472;13.108;2024-02-21T03:50:56;7.20;99.90
9776;DHT22;4927;52.472;13.108;2024-02-21T03:51:57;6.90;99.90
9776;DHT22;4927;52.472;13.108;2024-02-21T03:52:59;7.00;99.90
9776;DHT22;4927;52.472;13.108;2024-02-21T03:54:01;7.10;99.90
9776;DHT22;4927;52.472;13.108;2024-02-21T03:55:04;7.10;99.90
9776;DHT22;4927;52.472;13.108;2024-02-21T03:56:07;7.10;99.90
9776;DHT22;4927;52.472;13.108;2024-02-21T03:57:09;7.10;99.90
9776;DHT22;4927;52.472;13.108;2024-02-21T03:58:11;7.10;99.90
9776;DHT22;4927;52.472;13.108;2024-02-21T03:59:13;7.10;99.90
9776;DHT22;4927;52.472;13.108;2024-02-21T04:00:15;7.10;99.90
9776;DHT22;4927;52.472;13.108;2024-02-21T04:01:18;7.00;99.90
9776;DHT22;4927;52.472;13.108;2024-02-21T04:02:20;7.10;99.90
9776;DHT22;4927;52.472;13.108;2024-02-21T04:03:21;7.10;99.90
9776;DHT22;4927;52.472;13.108;2024-02-21T04:04:24;7.00;99.90
9776;DHT22;4927;52.472;13.108;2024-02-21T04:05:26;7.10;99.90
9776;DHT22;4927;52.472;13.108;2024-02-21T04:06:27;7.10;99.90
9776;DHT22;4927;52.472;13.108;2024-02-21T04:07:29;7.00;99.90
9776;DHT22;4927;52.472;13.108;2024-02-21T04:08:31;7.10;99.90
9776;DHT22;4927;52.472;13.108;2024-02-21T04:09:33;7.10;99.90
9776;DHT22;4927;52.472;13.108;2024-02-21T04:10:35;7.10;99.90
9776;DHT22;4927;52.472;13.108;2024-02-21T04:11:38;7.10;99.90
9776;DHT22;4927;52.472;13.108;2024-02-21T04:12:40;7.10;99.90
9776;DHT22;4927;52.472;13.108;2024-02-21T04:13:42;7.10;99.90
9776;DHT22;4927;52.472;13.108;2024-02-21T04:14:44;7.10;99.90
9776;DHT22;4927;52.472;13.108;2024-02-21T04:15:46;7.10;99.90
9776;DHT22;4927;52.472;13.108;2024-02-21T04:16:48;7.10;99.90
9776;DHT22;4927;52.472;13.108;2024-02-21T04:17:49;7.10;99.90
9776;DHT22;4927;52.472;13.108;2024-02-21T04:18:52;7.10;99.90
9776;DHT22;4927;52.472;13.108;2024-02-21T04:19:56;7.10;99.90
9776;DHT22;4927;52.472;13.108;2024-02-21T04:20:55;7.10;99.90
9776;DHT22;4927;52.472;13.108;2024-02-21T04:21:57;7.00;99.90
9776;DHT22;4927;52.472;13.108;2024-02-21T04:22:59;7.00;99.90
9776;DHT22;4927;52.472;13.108;2024-02-21T04:24:01;7.10;99.90
9776;DHT22;4927;52.472;13.108;2024-02-21T04:25:05;7.00;99.90
9776;DHT22;4927;52.472;13.108;2024-02-21T04:26:07;7.00;99.90
9776;DHT22;4927;52.472;13.108;2024-02-21T04:27:09;7.10;99.90
9776;DHT22;4927;52.472;13.108;2024-02-21T04:28:11;7.10;99.90
9776;DHT22;4927;52.472;13.108;2024-02-21T04:29:13;7.20;99.90
9776;DHT22;4927;52.472;13.108;2024-02-21T04:30:15;7.10;99.90
9776;DHT22;4927;52.472;13.108;2024-02-21T04:31:17;7.10;99.90
9776;DHT22;4927;52.472;13.108;2024-02-21T04:32:19;7.00;99.90
9776;DHT22;4927;52.472;13.108;2024-02-21T04:33:20;6.90;99.90
9776;DHT22;4927;52.472;13.108;2024-02-21T04:34:23;7.00;99.90
9776;DHT22;4927;52.472;13.108;2024-02-21T04:35:25;7.00;99.90
9776;DHT22;4927;52.472;13.108;2024-02-21T04:36:27;7.00;99.90
9776;DHT22;4927;52.472;13.108;2024-02-21T04:37:29;6.90;99.90
9776;DHT22;4927;52.472;13.108;2024-02-21T04:38:31;7.00;99.90
9776;DHT22;4927;52.472;13.108;2024-02-21T04:39:33;7.00;99.90
9776;DHT22;4927;52.472;13.108;2024-02-21T04:40:35;7.00;99.90
9776;DHT22;4927;52.472;13.108;2024-02-21T04:41:36;7.00;99.90
9776;DHT22;4927;52.472;13.108;2024-02-21T04:42:39;7.00;99.90
9776;DHT22;4927;52.472;13.108;2024-02-21T04:43:41;7.00;99.90
9776;DHT22;4927;52.472;13.108;2024-02-21T04:44:43;7.00;99.90
9776;DHT22;4927;52.472;13.108;2024-02-21T04:45:44;7.00;99.90
9776;DHT22;4927;52.472;13.108;2024-02-21T04:46:46;7.00;99.90
9776;DHT22;4927;52.472;13.108;2024-02-21T04:47:48;7.00;99.90
9776;DHT22;4927;52.472;13.108;2024-02-21T04:48:50;7.00;99.90
9776;DHT22;4927;52.472;13.108;2024-02-21T04:49:52;7.10;99.90
9776;DHT22;4927;52.472;13.108;2024-02-21T04:50:54;7.00;99.90
9776;DHT22;4927;52.472;13.108;2024-02-21T04:51:55;7.00;99.90
9776;DHT22;4927;52.472;13.108;2024-02-21T04:52:57;7.00;99.90
9776;DHT22;4927;52.472;13.108;2024-02-21T04:53:59;7.00;99.90
9776;DHT22;4927;52.472;13.108;2024-02-21T04:55:01;6.90;99.90
9776;DHT22;4927;52.472;13.108;2024-02-21T04:56:04;7.00;99.90
9776;DHT22;4927;52.472;13.108;2024-02-21T04:57:06;7.00;99.90
9776;DHT22;4927;52.472;13.108;2024-02-21T04:58:08;7.00;99.90
9776;DHT22;4927;52.472;13.108;2024-02-21T04:59:10;6.90;99.90
9776;DHT22;4927;52.472;13.108;2024-02-21T05:00:13;7.00;99.90
9776;DHT22;4927;52.472;13.108;2024-02-21T05:01:16;7.00;99.90
9776;DHT22;4927;52.472;13.108;2024-02-21T05:02:18;6.90;99.90
9776;DHT22;4927;52.472;13.108;2024-02-21T05:03:19;6.90;99.90
9776;DHT22;4927;52.472;13.108;2024-02-21T05:04:21;6.90;99.90
9776;DHT22;4927;52.472;13.108;2024-02-21T05:05:23;7.00;99.90
9776;DHT22;4927;52.472;13.108;2024-02-21T05:06:25;6.90;99.90
9776;DHT22;4927;52.472;13.108;2024-02-21T05:07:26;7.00;99.90
9776;DHT22;4927;52.472;13.108;2024-02-21T05:08:28;7.00;99.90
9776;DHT22;4927;52.472;13.108;2024-02-21T05:09:30;6.90;99.90
9776;DHT22;4927;52.472;13.108;2024-02-21T05:10:32;6.90;99.90
9776;DHT22;4927;52.472;13.108;2024-02-21T05:11:34;7.00;99.90
9776;DHT22;4927;52.472;13.108;2024-02-21T05:12:35;6.90;99.90
9776;DHT22;4927;52.472;13.108;2024-02-21T05:13:37;6.90;99.90
9776;DHT22;4927;52.472;13.108;2024-02-21T05:14:39;7.00;99.90
9776;DHT22;4927;52.472;13.108;2024-02-21T05:15:41;6.90;99.90
9776;DHT22;4927;52.472;13.108;2024-02-21T05:16:43;7.00;99.90
9776;DHT22;4927;52.472;13.108;2024-02-21T05:17:44;7.00;99.90
9776;DHT22;4927;52.472;13.108;2024-02-21T05:18:46;7.00;99.90
9776;DHT22;4927;52.472;13.108;2024-02-21T05:19:49;7.10;99.90
9776;DHT22;4927;52.472;13.108;2024-02-21T05:20:51;7.10;99.90
9776;DHT22;4927;52.472;13.108;2024-02-21T05:21:53;6.90;99.90
9776;DHT22;4927;52.472;13.108;2024-02-21T05:22:55;7.00;99.90
9776;DHT22;4927;52.472;13.108;2024-02-21T05:23:57;7.00;99.90
9776;DHT22;4927;52.472;13.108;2024-02-21T05:24:58;7.00;99.90
9776;DHT22;4927;52.472;13.108;2024-02-21T05:26:00;7.00;99.90
9776;DHT22;4927;52.472;13.108;2024-02-21T05:27:02;7.00;99.90
9776;DHT22;4927;52.472;13.108;2024-02-21T05:28:04;7.00;99.90
9776;DHT22;4927;52.472;13.108;2024-02-21T05:29:07;7.00;99.90
9776;DHT22;4927;52.472;13.108;2024-02-21T05:30:09;7.00;99.90
9776;DHT22;4927;52.472;13.108;2024-02-21T05:31:12;7.00;99.90
9776;DHT22;4927;52.472;13.108;2024-02-21T05:32:13;7.00;99.90
9776;DHT22;4927;52.472;13.108;2024-02-21T05:33:15;6.90;99.90
9776;DHT22;4927;52.472;13.108;2024-02-21T05:34:20;7.00;99.90
9776;DHT22;4927;52.472;13.108;2024-02-21T05:35:25;7.10;99.90
9776;DHT22;4927;52.472;13.108;2024-02-21T05:36:26;7.00;99.90
9776;DHT22;4927;52.472;13.108;2024-02-21T05:37:29;7.00;99.90
9776;DHT22;4927;52.472;13.108;2024-02-21T05:38:30;7.00;99.90
9776;DHT22;4927;52.472;13.108;2024-02-21T05:39:32;7.00;99.90
9776;DHT22;4927;52.472;13.108;2024-02-21T05:40:34;7.00;99.90
9776;DHT22;4927;52.472;13.108;2024-02-21T05:41:36;7.00;99.90
9776;DHT22;4927;52.472;13.108;2024-02-21T05:42:37;7.00;99.90
9776;DHT22;4927;52.472;13.108;2024-02-21T05:43:40;7.00;99.90
9776;DHT22;4927;52.472;13.108;2024-02-21T05:44:41;7.10;99.90
9776;DHT22;4927;52.472;13.108;2024-02-21T05:45:43;7.00;99.90
9776;DHT22;4927;52.472;13.108;2024-02-21T05:46:45;7.30;99.90
9776;DHT22;4927;52.472;13.108;2024-02-21T05:47:47;7.00;99.90
9776;DHT22;4927;52.472;13.108;2024-02-21T05:48:49;7.10;99.90
9776;DHT22;4927;52.472;13.108;2024-02-21T05:49:52;7.00;99.90
9776;DHT22;4927;52.472;13.108;2024-02-21T05:50:53;7.10;99.90
9776;DHT22;4927;52.472;13.108;2024-02-21T05:51:55;7.00;99.90
9776;DHT22;4927;52.472;13.108;2024-02-21T05:52:57;7.00;99.90
9776;DHT22;4927;52.472;13.108;2024-02-21T05:53:59;7.00;99.90
9776;DHT22;4927;52.472;13.108;2024-02-21T05:55:00;7.00;99.90
9776;DHT22;4927;52.472;13.108;2024-02-21T05:56:03;7.00;99.90
9776;DHT22;4927;52.472;13.108;2024-02-21T05:57:08;7.00;99.90
9776;DHT22;4927;52.472;13.108;2024-02-21T05:58:07;7.00;99.90
9776;DHT22;4927;52.472;13.108;2024-02-21T05:59:09;7.00;99.90
9776;DHT22;4927;52.472;13.108;2024-02-21T06:00:12;7.00;99.90
9776;DHT22;4927;52.472;13.108;2024-02-21T06:01:15;7.00;99.90
9776;DHT22;4927;52.472;13.108;2024-02-21T06:02:17;7.00;99.90
9776;DHT22;4927;52.472;13.108;2024-02-21T06:03:19;7.00;99.90
9776;DHT22;4927;52.472;13.108;2024-02-21T06:04:20;7.00;99.90
9776;DHT22;4927;52.472;13.108;2024-02-21T06:05:22;7.10;99.90
9776;DHT22;4927;52.472;13.108;2024-02-21T06:06:24;7.00;99.90
9776;DHT22;4927;52.472;13.108;2024-02-21T06:07:26;7.00;99.90
9776;DHT22;4927;52.472;13.108;2024-02-21T06:08:27;7.00;99.90
9776;DHT22;4927;52.472;13.108;2024-02-21T06:09:29;7.20;99.90
9776;DHT22;4927;52.472;13.108;2024-02-21T06:10:31;6.90;99.90
9776;DHT22;4927;52.472;13.108;2024-02-21T06:11:33;7.10;99.90
9776;DHT22;4927;52.472;13.108;2024-02-21T06:12:34;7.10;99.90
9776;DHT22;4927;52.472;13.108;2024-02-21T06:13:38;7.00;99.90
9776;DHT22;4927;52.472;13.108;2024-02-21T06:14:40;7.10;99.90
9776;DHT22;4927;52.472;13.108;2024-02-21T06:15:42;7.10;99.90
9776;DHT22;4927;52.472;13.108;2024-02-21T06:16:43;7.20;99.90
9776;DHT22;4927;52.472;13.108;2024-02-21T06:17:45;7.10;99.90
9776;DHT22;4927;52.472;13.108;2024-02-21T06:18:47;7.10;99.90
9776;DHT22;4927;52.472;13.108;2024-02-21T06:19:49;7.10;99.90
9776;DHT22;4927;52.472;13.108;2024-02-21T06:20:50;7.10;99.90
9776;DHT22;4927;52.472;13.108;2024-02-21T06:21:52;7.00;99.90
9776;DHT22;4927;52.472;13.108;2024-02-21T06:22:55;7.10;99.90
9776;DHT22;4927;52.472;13.108;2024-02-21T06:23:57;7.10;99.90
9776;DHT22;4927;52.472;13.108;2024-02-21T06:24:59;7.10;99.90
9776;DHT22;4927;52.472;13.108;2024-02-21T06:26:01;7.10;99.90
9776;DHT22;4927;52.472;13.108;2024-02-21T06:27:04;7.10;99.90
9776;DHT22;4927;52.472;13.108;2024-02-21T06:28:05;7.20;99.90
9776;DHT22;4927;52.472;13.108;2024-02-21T06:29:07;7.10;99.90
9776;DHT22;4927;52.472;13.108;2024-02-21T06:30:10;7.10;99.90
9776;DHT22;4927;52.472;13.108;2024-02-21T06:31:13;7.10;99.90
9776;DHT22;4927;52.472;13.108;2024-02-21T06:32:15;7.10;99.90
9776;DHT22;4927;52.472;13.108;2024-02-21T06:33:17;7.10;99.90
9776;DHT22;4927;52.472;13.108;2024-02-21T06:34:18;7.10;99.90
9776;DHT22;4927;52.472;13.108;2024-02-21T06:35:20;7.10;99.90
9776;DHT22;4927;52.472;13.108;2024-02-21T06:36:22;7.10;99.90
9776;DHT22;4927;52.472;13.108;2024-02-21T06:37:25;7.20;99.90
9776;DHT22;4927;52.472;13.108;2024-02-21T06:38:27;7.00;99.90
9776;DHT22;4927;52.472;13.108;2024-02-21T06:39:29;7.20;99.90
9776;DHT22;4927;52.472;13.108;2024-02-21T06:40:32;7.20;99.90
9776;DHT22;4927;52.472;13.108;2024-02-21T06:41:34;7.20;99.90
9776;DHT22;4927;52.472;13.108;2024-02-21T06:42:36;7.10;99.90
9776;DHT22;4927;52.472;13.108;2024-02-21T06:43:39;7.20;99.90
9776;DHT22;4927;52.472;13.108;2024-02-21T06:44:40;7.10;99.90
9776;DHT22;4927;52.472;13.108;2024-02-21T06:45:43;7.20;99.90
9776;DHT22;4927;52.472;13.108;2024-02-21T06:46:45;7.20;99.90
9776;DHT22;4927;52.472;13.108;2024-02-21T06:47:47;7.20;99.90
9776;DHT22;4927;52.472;13.108;2024-02-21T06:48:50;7.20;99.90
9776;DHT22;4927;52.472;13.108;2024-02-21T06:49:51;7.10;99.90
9776;DHT22;4927;52.472;13.108;2024-02-21T06:50:54;7.20;99.90
9776;DHT22;4927;52.472;13.108;2024-02-21T06:51:56;7.20;99.90
9776;DHT22;4927;52.472;13.108;2024-02-21T06:52:57;7.20;99.90
9776;DHT22;4927;52.472;13.108;2024-02-21T06:54:00;7.20;99.90
9776;DHT22;4927;52.472;13.108;2024-02-21T06:55:02;7.10;99.90
9776;DHT22;4927;52.472;13.108;2024-02-21T06:56:06;7.10;99.90
9776;DHT22;4927;52.472;13.108;2024-02-21T06:57:08;7.20;99.90